Pyron, Texas
Current Conditions -  °F | °C
As of 11:35 AM on Tuesday 21 Oct 2014 (Local Time) from KSWW Reporting Station
Scattered Clouds Scattered Clouds  
Wind Chill: 23°   Ceiling: Unl
Heat Index: 23°   Visibility: 10mi
Dew Point: 14°   Wind: 6mph
Humidity: 57%   Direction: 200°SSW
Pressure: 30.16"   Gusts: NA
Location:  32.3875°N, 100.536°W
Report Text: KSWW 211635Z AUTO 20005KT 10SM SCT033 SCT039 23/14 A3016 RMK AO2 T02260136
Loading
Personal Weather Stations






























Interactive Weather Map
Tropical Storm Tracking
New forecast layout! Learn more

10-Day Weather Forecast

Advertisements
Track Severe Weather on mobile